createdAt,value
2019-01-05T00:00:00.323Z,5.10
2019-01-05T00:02:31.446Z,5.10
2019-01-05T00:05:02.535Z,5.10
2019-01-05T00:07:33.600Z,5.10
2019-01-05T00:10:17.660Z,5.10
2019-01-05T00:13:07.110Z,5.10
2019-01-05T00:15:54.752Z,5.10
2019-01-05T00:18:35.278Z,5.00
2019-01-05T00:21:07.224Z,5.10
2019-01-05T00:23:48.031Z,5.10
2019-01-05T00:26:32.824Z,5.10
2019-01-05T00:29:07.007Z,5.20
2019-01-05T00:31:50.711Z,5.20
2019-01-05T00:34:27.607Z,5.20
2019-01-05T00:36:59.988Z,5.20
2019-01-05T00:39:38.583Z,5.20
2019-01-05T00:42:26.879Z,5.20
2019-01-05T00:45:04.123Z,5.20
2019-01-05T00:47:44.250Z,5.20
2019-01-05T00:50:19.143Z,5.20
2019-01-05T00:53:02.863Z,5.20
2019-01-05T00:55:50.864Z,5.20
2019-01-05T00:58:38.386Z,5.20
2019-01-05T01:01:21.337Z,5.10
2019-01-05T01:04:11.096Z,5.00
2019-01-05T01:06:45.167Z,5.10
2019-01-05T01:09:21.975Z,5.00
2019-01-05T01:11:59.185Z,5.00
2019-01-05T01:14:46.611Z,5.00
2019-01-05T01:17:33.935Z,5.00
2019-01-05T01:20:22.005Z,5.00
2019-01-05T01:23:10.015Z,5.00
2019-01-05T01:25:58.006Z,5.00
2019-01-05T01:28:30.388Z,5.00
2019-01-05T01:31:05.319Z,5.00
2019-01-05T01:33:39.867Z,5.10
2019-01-05T01:36:11.395Z,5.10
2019-01-05T01:38:51.571Z,5.10
2019-01-05T01:41:25.735Z,5.10
2019-01-05T01:44:12.379Z,5.10
2019-01-05T01:46:44.479Z,5.10
2019-01-05T01:49:21.774Z,5.10
2019-01-05T01:52:09.838Z,5.00
2019-01-05T01:54:41.289Z,5.10
2019-01-05T01:57:17.116Z,5.00
2019-01-05T01:59:50.695Z,5.10
2019-01-05T02:02:26.845Z,5.10
2019-01-05T02:05:02.059Z,5.10
2019-01-05T02:07:35.187Z,5.10
2019-01-05T02:10:25.043Z,5.20
2019-01-05T02:13:15.692Z,5.20
2019-01-05T02:15:56.568Z,5.20
2019-01-05T02:18:31.251Z,5.30
2019-01-05T02:21:32.623Z,5.20
2019-01-05T02:24:34.975Z,5.20
2019-01-05T02:27:14.776Z,5.30
2019-01-05T02:29:54.673Z,5.20
2019-01-05T02:32:40.701Z,5.20
2019-01-05T02:35:58.975Z,5.20
2019-01-05T02:38:58.865Z,5.20
2019-01-05T02:41:59.004Z,5.20
2019-01-05T02:45:04.137Z,5.20
2019-01-05T02:48:10.975Z,5.10
2019-01-05T02:51:13.556Z,5.10
2019-01-05T02:54:06.003Z,5.10
2019-01-05T02:57:18.015Z,5.00
2019-01-05T03:00:16.011Z,5.00
2019-01-05T03:03:01.833Z,5.10
2019-01-05T03:05:58.053Z,5.00
2019-01-05T03:08:41.255Z,5.00
2019-01-05T03:11:33.947Z,5.10
2019-01-05T03:14:13.496Z,5.10
2019-01-05T03:17:17.585Z,5.10
2019-01-05T03:20:24.885Z,5.10
2019-01-05T03:23:04.782Z,5.10
2019-01-05T03:26:31.623Z,5.10
2019-01-05T03:29:21.005Z,5.10
2019-01-05T03:31:57.879Z,5.00
2019-01-05T03:35:00.238Z,5.00
2019-01-05T03:37:45.961Z,4.90
2019-01-05T03:40:44.166Z,4.80
2019-01-05T03:43:53.132Z,4.80
2019-01-05T03:47:08.024Z,4.80
2019-01-05T03:50:19.432Z,4.80
2019-01-05T03:53:16.063Z,4.80
2019-01-05T03:56:18.768Z,4.70
2019-01-05T03:59:07.164Z,4.70
2019-01-05T04:02:02.105Z,4.60
2019-01-05T04:05:09.689Z,4.60
2019-01-05T04:07:52.360Z,4.50
2019-01-05T04:10:38.294Z,4.50
2019-01-05T04:13:36.220Z,4.50
2019-01-05T04:16:25.253Z,4.50
2019-01-05T04:19:17.312Z,4.50
2019-01-05T04:21:59.997Z,4.50
2019-01-05T04:25:04.468Z,4.50
2019-01-05T04:27:53.532Z,4.40
2019-01-05T04:31:01.014Z,4.40
2019-01-05T04:34:09.815Z,4.40
2019-01-05T04:37:22.911Z,4.50
2019-01-05T04:40:02.974Z,4.50
2019-01-05T04:43:04.842Z,4.50
2019-01-05T04:45:54.025Z,4.50
2019-01-05T04:48:57.313Z,4.60
2019-01-05T04:51:49.279Z,4.50
2019-01-05T04:54:50.731Z,4.60
2019-01-05T04:58:09.080Z,4.60
2019-01-05T05:00:45.755Z,4.60
2019-01-05T05:03:22.740Z,4.60
2019-01-05T05:06:32.600Z,4.50
2019-01-05T05:09:44.263Z,4.60
2019-01-05T05:12:30.305Z,4.60
2019-01-05T05:15:43.018Z,4.60
2019-01-05T05:18:31.955Z,4.50
2019-01-05T05:21:44.544Z,4.50
2019-01-05T05:24:39.885Z,4.50
2019-01-05T05:27:43.651Z,4.50
2019-01-05T05:30:33.988Z,4.50
2019-01-05T05:33:40.608Z,4.50
2019-01-05T05:36:29.219Z,4.50
2019-01-05T05:39:36.000Z,4.50
2019-01-05T05:42:31.311Z,4.50
2019-01-05T05:45:34.244Z,4.50
2019-01-05T05:48:46.755Z,4.50
2019-01-05T05:52:10.547Z,4.50
2019-01-05T05:55:19.395Z,4.50
2019-01-05T05:58:26.268Z,4.50
2019-01-05T06:01:25.991Z,4.50
2019-01-05T06:04:28.472Z,4.50
2019-01-05T06:07:22.911Z,4.50
2019-01-05T06:10:49.074Z,4.60
2019-01-05T06:13:58.951Z,4.60
2019-01-05T06:16:50.654Z,4.60
2019-01-05T06:20:04.236Z,4.60
2019-01-05T06:23:11.826Z,4.60
2019-01-05T06:26:08.068Z,4.80
2019-01-05T06:29:21.151Z,4.80
2019-01-05T06:32:45.107Z,4.80
2019-01-05T06:35:42.536Z,4.70
2019-01-05T06:39:02.260Z,4.70
2019-01-05T06:41:58.253Z,4.70
2019-01-05T06:44:55.103Z,4.70
2019-01-05T06:47:34.792Z,4.70
2019-01-05T06:50:36.268Z,4.70
2019-01-05T06:53:19.071Z,4.70
2019-01-05T06:56:27.692Z,4.70
2019-01-05T06:59:21.231Z,4.80
2019-01-05T07:02:30.145Z,4.80
2019-01-05T07:05:33.074Z,4.70
2019-01-05T07:08:51.268Z,4.70
2019-01-05T07:11:37.364Z,4.70
2019-01-05T07:14:56.539Z,4.70
2019-01-05T07:18:14.208Z,4.70
2019-01-05T07:21:10.376Z,4.70
2019-01-05T07:24:16.562Z,4.70
2019-01-05T07:27:23.485Z,4.60
2019-01-05T07:30:30.699Z,4.60
2019-01-05T07:33:13.115Z,4.70
2019-01-05T07:36:37.032Z,4.60
2019-01-05T07:39:38.484Z,4.60
2019-01-05T07:42:46.136Z,4.60
2019-01-05T07:45:46.839Z,4.60
2019-01-05T07:48:57.315Z,4.60
2019-01-05T07:52:14.335Z,4.60
2019-01-05T07:55:39.964Z,4.50
2019-01-05T07:58:39.932Z,4.40
2019-01-05T08:01:35.519Z,4.50
2019-01-05T08:04:45.523Z,4.40
2019-01-05T08:07:46.814Z,4.50
2019-01-05T08:10:32.774Z,4.50
2019-01-05T08:13:35.009Z,4.50
2019-01-05T08:16:34.561Z,4.60
2019-01-05T08:20:00.923Z,4.60
2019-01-05T08:22:50.359Z,4.60
2019-01-05T08:25:40.943Z,4.60
2019-01-05T08:28:49.442Z,4.70
2019-01-05T08:31:44.743Z,4.70
2019-01-05T08:34:38.199Z,4.80
2019-01-05T08:37:34.142Z,4.80
2019-01-05T08:40:33.899Z,4.90
2019-01-05T08:43:55.016Z,4.90
2019-01-05T08:47:14.121Z,4.90
2019-01-05T08:50:21.491Z,4.90
2019-01-05T08:53:40.519Z,5.00
2019-01-05T08:57:01.779Z,5.00
2019-01-05T09:00:04.373Z,5.00
2019-01-05T09:03:30.020Z,5.00
2019-01-05T09:06:45.989Z,5.00
2019-01-05T09:09:38.031Z,5.00
2019-01-05T09:12:30.178Z,5.10
2019-01-05T09:15:40.155Z,5.20
2019-01-05T09:18:25.871Z,5.20
2019-01-05T09:21:39.308Z,5.20
2019-01-05T09:24:37.517Z,5.20
2019-01-05T09:27:32.639Z,5.20
2019-01-05T09:30:35.543Z,5.30
2019-01-05T09:33:38.319Z,5.30
2019-01-05T09:36:40.850Z,5.20
2019-01-05T09:39:32.964Z,5.30
2019-01-05T09:42:48.395Z,5.30
2019-01-05T09:45:44.907Z,5.20
2019-01-05T09:49:01.347Z,5.30
2019-01-05T09:52:24.008Z,5.30
2019-01-05T09:55:26.724Z,5.50
2019-01-05T09:58:18.884Z,5.60
2019-01-05T10:01:16.580Z,5.60
2019-01-05T10:04:25.183Z,5.60
2019-01-05T10:07:18.588Z,5.60
2019-01-05T10:10:34.986Z,5.80
2019-01-05T10:13:31.359Z,5.80
2019-01-05T10:16:22.898Z,5.80
2019-01-05T10:18:59.708Z,5.90
2019-01-05T10:21:51.628Z,5.90
2019-01-05T10:25:00.824Z,6.00
2019-01-05T10:28:16.491Z,6.00
2019-01-05T10:31:28.747Z,6.10
2019-01-05T10:34:48.091Z,6.10
2019-01-05T10:37:55.836Z,6.20
2019-01-05T10:40:44.784Z,6.20
2019-01-05T10:43:44.342Z,6.20
2019-01-05T10:46:34.763Z,6.20
2019-01-05T10:49:23.683Z,6.30
2019-01-05T10:52:32.231Z,6.30
2019-01-05T10:55:24.019Z,6.30
2019-01-05T10:58:17.323Z,6.30
2019-01-05T11:01:22.924Z,6.30
2019-01-05T11:04:12.451Z,6.40
2019-01-05T11:06:55.395Z,6.40
2019-01-05T11:09:47.376Z,6.40
2019-01-05T11:12:43.503Z,6.50
2019-01-05T11:15:22.926Z,6.50
2019-01-05T11:18:23.899Z,6.50
2019-01-05T11:21:19.468Z,6.50
2019-01-05T11:24:24.338Z,6.50
2019-01-05T11:27:14.668Z,6.60
2019-01-05T11:30:32.478Z,6.60
2019-01-05T11:33:15.395Z,6.60
2019-01-05T11:36:01.560Z,6.70
2019-01-05T11:39:08.495Z,6.70
2019-01-05T11:42:20.075Z,6.70
2019-01-05T11:45:12.503Z,6.70
2019-01-05T11:48:22.742Z,6.80
2019-01-05T11:51:11.455Z,6.80
2019-01-05T11:54:30.167Z,6.80
2019-01-05T11:57:52.868Z,6.90
2019-01-05T12:00:45.198Z,6.90
2019-01-05T12:03:49.499Z,6.90
2019-01-05T12:06:54.971Z,6.90
2019-01-05T12:10:04.940Z,6.90
2019-01-05T12:12:57.108Z,6.90
2019-01-05T12:15:49.620Z,7.00
2019-01-05T12:19:01.343Z,7.00
2019-01-05T12:22:10.019Z,7.10
2019-01-05T12:25:03.328Z,7.10
2019-01-05T12:27:52.111Z,7.10
2019-01-05T12:30:55.676Z,7.10
2019-01-05T12:33:49.480Z,7.20
2019-01-05T12:36:55.383Z,7.10
2019-01-05T12:40:05.028Z,7.10
2019-01-05T12:43:00.076Z,7.20
2019-01-05T12:46:07.586Z,7.10
2019-01-05T12:49:09.988Z,7.10
2019-01-05T12:51:56.115Z,7.20
2019-01-05T12:55:04.484Z,7.20
2019-01-05T13:01:12.090Z,7.20
2019-01-05T13:04:09.059Z,7.20
2019-01-05T13:07:21.864Z,7.20
2019-01-05T13:10:27.288Z,7.20
2019-01-05T13:13:41.076Z,7.20
2019-01-05T13:16:54.442Z,7.20
2019-01-05T13:19:40.683Z,7.30
2019-01-05T13:22:34.696Z,7.30
2019-01-05T13:25:32.210Z,7.40
2019-01-05T13:28:18.616Z,7.40
2019-01-05T13:30:55.359Z,7.40
2019-01-05T13:34:00.665Z,7.40
2019-01-05T13:36:53.389Z,7.40
2019-01-05T13:40:00.429Z,7.40
2019-01-05T13:43:07.300Z,7.40
2019-01-05T13:46:18.040Z,7.40
2019-01-05T13:49:17.493Z,7.40
2019-01-05T13:52:19.925Z,7.40
2019-01-05T13:54:56.673Z,7.50
2019-01-05T13:57:36.709Z,7.50
2019-01-05T14:00:17.205Z,7.50
2019-01-05T14:03:08.730Z,7.50
2019-01-05T14:05:58.072Z,7.60
2019-01-05T14:08:30.283Z,7.60
2019-01-05T14:11:16.441Z,7.60
2019-01-05T14:14:03.743Z,7.70
2019-01-05T14:16:52.768Z,7.70
2019-01-05T14:19:29.842Z,7.70
2019-01-05T14:22:20.514Z,7.70
2019-01-05T14:25:05.521Z,7.70
2019-01-05T14:27:56.249Z,7.80
2019-01-05T14:30:46.184Z,7.80
2019-01-05T14:33:23.151Z,7.90
2019-01-05T14:36:10.195Z,7.90
2019-01-05T14:38:51.494Z,7.90
2019-01-05T14:41:32.809Z,7.90
2019-01-05T14:44:04.670Z,8.00
2019-01-05T14:46:47.427Z,8.00
2019-01-05T14:49:30.636Z,8.00
2019-01-05T14:52:05.513Z,8.10
2019-01-05T14:54:59.328Z,8.10
2019-01-05T14:57:46.984Z,8.10
2019-01-05T15:00:36.329Z,8.10
2019-01-05T15:03:25.129Z,8.10
2019-01-05T15:05:57.174Z,8.20
2019-01-05T15:08:33.376Z,8.20
2019-01-05T15:11:12.189Z,8.20
2019-01-05T15:13:52.580Z,8.20
2019-01-05T15:16:43.004Z,8.20
2019-01-05T15:19:21.069Z,8.20
2019-01-05T15:21:58.762Z,8.20
2019-01-05T15:24:42.451Z,8.30
2019-01-05T15:27:30.360Z,8.30
2019-01-05T15:30:18.084Z,8.20
2019-01-05T15:32:54.433Z,8.20
2019-01-05T15:35:30.419Z,8.20
2019-01-05T15:38:35.848Z,8.30
2019-01-05T15:41:11.564Z,8.30
2019-01-05T15:44:01.436Z,8.30
2019-01-05T15:46:32.620Z,8.30
2019-01-05T15:49:09.803Z,8.20
2019-01-05T15:51:41.055Z,8.20
2019-01-05T15:54:29.913Z,8.20
2019-01-05T15:57:03.019Z,8.20
2019-01-05T15:59:54.159Z,8.10
2019-01-05T16:02:32.340Z,8.10
2019-01-05T16:05:07.467Z,8.10
2019-01-05T16:07:56.097Z,8.00
2019-01-05T16:10:46.257Z,8.00
2019-01-05T16:13:38.790Z,7.90
2019-01-05T16:16:26.682Z,7.90
2019-01-05T16:19:14.272Z,7.90
2019-01-05T16:21:54.387Z,7.90
2019-01-05T16:24:28.199Z,7.90
2019-01-05T16:27:11.335Z,7.90
2019-01-05T16:30:03.999Z,8.00
2019-01-05T16:32:47.249Z,8.00
2019-01-05T16:35:24.536Z,8.00
2019-01-05T16:38:13.427Z,8.00
2019-01-05T16:40:44.655Z,8.10
2019-01-05T16:43:16.144Z,8.00
2019-01-05T16:45:50.339Z,8.00
2019-01-05T16:48:21.425Z,8.00
2019-01-05T16:51:07.296Z,8.00
2019-01-05T16:53:44.148Z,8.00
2019-01-05T16:56:21.896Z,8.00
2019-01-05T16:58:53.041Z,8.00
2019-01-05T17:01:33.716Z,8.00
2019-01-05T17:04:15.309Z,8.00
2019-01-05T17:06:52.586Z,8.00
2019-01-05T17:09:26.954Z,8.00
2019-01-05T17:12:15.672Z,8.00
2019-01-05T17:15:03.629Z,8.00
2019-01-05T17:17:47.643Z,8.00
2019-01-05T17:20:35.230Z,8.00
2019-01-05T17:23:20.419Z,8.00
2019-01-05T17:25:51.548Z,8.00
2019-01-05T17:28:28.787Z,8.10
2019-01-05T17:31:03.262Z,8.10
2019-01-05T17:33:36.139Z,8.20
2019-01-05T17:36:26.540Z,8.10
2019-01-05T17:39:03.930Z,8.20
2019-01-05T17:41:43.885Z,8.20
2019-01-05T17:44:31.680Z,8.20
2019-01-05T17:47:02.905Z,8.20
2019-01-05T17:49:50.356Z,8.20
2019-01-05T17:52:33.690Z,8.20
2019-01-05T17:55:23.358Z,8.20
2019-01-05T17:58:10.641Z,8.20
2019-01-05T18:00:47.939Z,8.20
2019-01-05T18:03:28.235Z,8.20
2019-01-05T18:06:17.804Z,8.20
2019-01-05T18:09:05.194Z,8.20
2019-01-05T18:11:51.608Z,8.30
2019-01-05T18:14:38.991Z,8.30
2019-01-05T18:17:10.216Z,8.30
2019-01-05T18:19:41.540Z,8.30
2019-01-05T18:22:30.298Z,8.30
2019-01-05T18:25:01.806Z,8.30
2019-01-05T18:27:36.212Z,8.30
2019-01-05T18:30:24.864Z,8.30
2019-01-05T18:33:07.816Z,8.30
2019-01-05T18:35:59.303Z,8.20
2019-01-05T18:38:33.644Z,8.30
2019-01-05T18:41:04.941Z,8.30
2019-01-05T18:43:39.757Z,8.30
2019-01-05T18:46:13.750Z,8.30
2019-01-05T18:48:54.132Z,8.30
2019-01-05T18:51:40.247Z,8.20
2019-01-05T18:54:24.497Z,8.20
2019-01-05T18:57:11.027Z,8.20
2019-01-05T18:59:42.399Z,8.30
2019-01-05T19:02:13.544Z,8.20
2019-01-05T19:04:44.779Z,8.20
2019-01-05T19:07:18.826Z,8.30
2019-01-05T19:09:50.179Z,8.30
2019-01-05T19:12:36.781Z,8.20
2019-01-05T19:15:24.912Z,8.20
2019-01-05T19:18:02.515Z,8.30
2019-01-05T19:20:45.523Z,8.30
2019-01-05T19:23:35.265Z,8.30
2019-01-05T19:26:10.467Z,8.30
2019-01-05T19:28:41.733Z,8.30
2019-01-05T19:31:12.904Z,8.40
2019-01-05T19:33:49.693Z,8.40
2019-01-05T19:36:29.888Z,8.40
2019-01-05T19:39:09.855Z,8.40
2019-01-05T19:41:57.396Z,8.40
2019-01-05T19:44:28.939Z,8.30
2019-01-05T19:47:00.006Z,8.30
2019-01-05T19:49:40.447Z,8.40
2019-01-05T19:52:17.563Z,8.40
2019-01-05T19:55:00.279Z,8.40
2019-01-05T19:57:37.312Z,8.30
2019-01-05T20:00:27.091Z,8.40
2019-01-05T20:02:58.183Z,8.30
2019-01-05T20:05:44.919Z,8.40
2019-01-05T20:08:33.567Z,8.30
2019-01-05T20:11:20.675Z,8.30
2019-01-05T20:13:51.735Z,8.30
2019-01-05T20:16:26.179Z,8.30
2019-01-05T20:18:57.315Z,8.30
2019-01-05T20:21:44.456Z,8.30
2019-01-05T20:24:21.576Z,8.40
2019-01-05T20:27:07.907Z,8.30
2019-01-05T20:29:45.048Z,8.30
2019-01-05T20:32:16.803Z,8.40
2019-01-05T20:35:00.089Z,8.40
2019-01-05T20:37:40.379Z,8.30
2019-01-05T20:40:11.612Z,8.30
2019-01-05T20:42:42.727Z,8.30
2019-01-05T20:45:20.746Z,8.30
2019-01-05T20:47:55.039Z,8.30
2019-01-05T20:50:35.540Z,8.30
2019-01-05T20:53:23.135Z,8.30
2019-01-05T20:56:06.539Z,8.30
2019-01-05T20:58:52.366Z,8.30
2019-01-05T21:01:23.515Z,8.30
2019-01-05T21:04:00.592Z,8.30
2019-01-05T21:06:35.243Z,8.30
2019-01-05T21:09:08.396Z,8.30
2019-01-05T21:11:39.591Z,8.30
2019-01-05T21:14:11.217Z,8.30
2019-01-05T21:16:46.235Z,8.40
2019-01-05T21:19:24.238Z,8.30
2019-01-05T21:21:56.746Z,8.30
2019-01-05T21:24:34.188Z,8.30
2019-01-05T21:27:05.563Z,8.30
2019-01-05T21:29:49.184Z,8.30
2019-01-05T21:32:38.012Z,8.30
2019-01-05T21:35:25.313Z,8.30
2019-01-05T21:37:59.447Z,8.30
2019-01-05T21:40:30.780Z,8.30
2019-01-05T21:43:20.270Z,8.30
2019-01-05T21:46:00.490Z,8.30
2019-01-05T21:48:32.779Z,8.30
2019-01-05T21:51:22.049Z,8.30
2019-01-05T21:54:08.124Z,8.20
2019-01-05T21:56:42.516Z,8.30
2019-01-05T21:59:31.806Z,8.30
2019-01-05T22:02:06.880Z,8.30
2019-01-05T22:04:46.917Z,8.20
2019-01-05T22:07:34.627Z,8.30
2019-01-05T22:10:12.853Z,8.30
2019-01-05T22:12:44.024Z,8.20
2019-01-05T22:15:27.447Z,8.30
2019-01-05T22:17:58.599Z,8.30
2019-01-05T22:20:45.893Z,8.30
2019-01-05T22:23:22.996Z,8.30
2019-01-05T22:26:00.088Z,8.30
2019-01-05T22:28:40.784Z,8.30
2019-01-05T22:31:27.079Z,8.30
2019-01-05T22:34:04.531Z,8.30
2019-01-05T22:36:35.880Z,8.30
2019-01-05T22:39:20.203Z,8.30
2019-01-05T22:42:06.576Z,8.30
2019-01-05T22:44:49.447Z,8.30
2019-01-05T22:47:40.228Z,8.30
2019-01-05T22:50:17.211Z,8.30
2019-01-05T22:52:58.695Z,8.30
2019-01-05T22:55:38.636Z,8.30
2019-01-05T22:58:12.743Z,8.30
2019-01-05T23:00:46.747Z,8.30
2019-01-05T23:03:20.459Z,8.40
2019-01-05T23:06:06.422Z,8.30
2019-01-05T23:08:40.938Z,8.30
2019-01-05T23:11:29.731Z,8.30
2019-01-05T23:14:12.748Z,8.40
2019-01-05T23:17:00.204Z,8.40
2019-01-05T23:19:47.559Z,8.30
2019-01-05T23:22:21.554Z,8.30
2019-01-05T23:24:58.603Z,8.30
2019-01-05T23:27:41.771Z,8.40
2019-01-05T23:30:25.135Z,8.40
2019-01-05T23:32:59.155Z,8.40
2019-01-05T23:35:50.639Z,8.40
2019-01-05T23:38:27.460Z,8.50
2019-01-05T23:41:04.318Z,8.40
2019-01-05T23:43:37.891Z,8.40
2019-01-05T23:46:23.685Z,8.40
2019-01-05T23:49:12.549Z,8.30
2019-01-05T23:51:43.691Z,8.30
2019-01-05T23:54:20.474Z,8.30
2019-01-05T23:56:54.002Z,8.30
2019-01-05T23:59:30.884Z,8.30
